Airfield :
LOGIN :

Register | Disclaimer

   EN    FR    IT 

 










Legend :    VFR   Marginal VFR   IFR   Intensive IFR   Very Intensive IFR
Visi :
Ceiling :
>= 8 km
>= 3000ft
5 to 8 km
1000 to 3000 ft
1500m to 5 km
500 to 1000 ft
800 to 1500m
200 to 500 ft
< 800m
< 200 ft
Symbols :   Thunderstorms  Fog  Heavy snow  Heavy precipitations  Wind > 20 kt
SIGMETs :     Misc.  Thunderstorms  Icing  Turbulence  Mountain Waves  Volcanic Ashes







- Airport Elevation : 245 ft
- IATA code : BIQ
- Download approach charts


LFBZ - Biarritz

CURRENT METAR :
  • 201500Z AUTO VRB03KT 9999 FEW058 OVC088 05/02 Q1003 TEMPO 4000 -RA BKN010

EXPIRED METARs :
  • 201430Z AUTO 13004KT 100V170 9999 SCT062 OVC076 05/02 Q1002 TEMPO 4000 -RA BKN010
  • 201400Z AUTO VRB03KT 9999 FEW045 BKN054 BKN068 05/01 Q1002 TEMPO 4000 -RA BKN010
  • 201330Z AUTO VRB03KT 9999 SCT041/// BKN049/// BKN060/// ///TCU 05/01 Q1002 TEMPO 4000 -RA BKN010
  • 201300Z AUTO 00000KT 9999 BKN046/// OVC054/// ///TCU 05/01 Q1002 TEMPO 4000 -RA BKN010
  • 201230Z AUTO VRB03KT 9999 OVC047 05/01 Q1002 TEMPO 4000 -RA BKN010

TAF TAF LFBZ
Valid from the 20 at 12:00 until the 21 at 12:00 UTC


201100Z 2012/2112 10006KT 9999 SCT020 BKN040
PROB30
TEMPO 2013/2019 4000 -RA BKN010
PROB30
TEMPO 2100/2103 1000 BR
No reported NOTAMs for that airfield.



MET'MAP, your aeronautical weather chart ! - Copyright ORBIFLY December 2007 - Disclaimer

ORBIFLY MET'MAP TEAM :

Programming & Development : Alexandra Zaïnal
Concept & Development : Baudouin d'Aumeries
Co-Development & Prog : Marc-Olivier Méhu
Technical & hardware support : Manuel Goepfert

Contact : metmap@orbifly.com




SOURCES & CREDITS :

   NOAA